sensor_id;sensor_type;location;lat;lon;timestamp;temperature;humidity
2489;DHT22;1255;48.716;9.124;2022-07-26T00:00:15;21.30;99.90
2489;DHT22;1255;48.716;9.124;2022-07-26T00:02:44;21.20;99.90
2489;DHT22;1255;48.716;9.124;2022-07-26T00:05:11;21.20;99.90
2489;DHT22;1255;48.716;9.124;2022-07-26T00:07:38;21.20;99.90
2489;DHT22;1255;48.716;9.124;2022-07-26T00:10:05;21.30;99.90
2489;DHT22;1255;48.716;9.124;2022-07-26T00:12:33;21.20;99.90
2489;DHT22;1255;48.716;9.124;2022-07-26T00:14:59;21.20;99.90
2489;DHT22;1255;48.716;9.124;2022-07-26T00:17:27;21.20;99.90
2489;DHT22;1255;48.716;9.124;2022-07-26T00:19:54;21.20;99.90
2489;DHT22;1255;48.716;9.124;2022-07-26T00:22:21;21.20;99.90
2489;DHT22;1255;48.716;9.124;2022-07-26T00:24:59;21.20;99.90
2489;DHT22;1255;48.716;9.124;2022-07-26T00:27:26;21.20;99.90
2489;DHT22;1255;48.716;9.124;2022-07-26T00:29:53;21.30;99.90
2489;DHT22;1255;48.716;9.124;2022-07-26T00:32:20;21.30;99.90
2489;DHT22;1255;48.716;9.124;2022-07-26T00:34:48;21.40;99.90
2489;DHT22;1255;48.716;9.124;2022-07-26T00:37:16;21.40;99.90
2489;DHT22;1255;48.716;9.124;2022-07-26T00:39:42;21.40;99.90
2489;DHT22;1255;48.716;9.124;2022-07-26T00:42:09;21.50;99.90
2489;DHT22;1255;48.716;9.124;2022-07-26T00:44:36;21.50;99.90
2489;DHT22;1255;48.716;9.124;2022-07-26T00:47:03;21.50;99.90
2489;DHT22;1255;48.716;9.124;2022-07-26T00:49:30;21.50;99.90
2489;DHT22;1255;48.716;9.124;2022-07-26T00:51:58;21.60;99.90
2489;DHT22;1255;48.716;9.124;2022-07-26T00:54:26;21.60;99.90
2489;DHT22;1255;48.716;9.124;2022-07-26T00:56:52;21.60;99.90
2489;DHT22;1255;48.716;9.124;2022-07-26T00:59:19;21.60;99.90
2489;DHT22;1255;48.716;9.124;2022-07-26T01:01:46;21.60;99.90
2489;DHT22;1255;48.716;9.124;2022-07-26T01:04:13;21.60;99.90
2489;DHT22;1255;48.716;9.124;2022-07-26T01:06:40;21.70;99.90
2489;DHT22;1255;48.716;9.124;2022-07-26T01:09:08;21.70;99.90
2489;DHT22;1255;48.716;9.124;2022-07-26T01:11:36;21.70;99.90
2489;DHT22;1255;48.716;9.124;2022-07-26T01:14:02;21.70;99.90
2489;DHT22;1255;48.716;9.124;2022-07-26T01:16:29;21.70;99.90
2489;DHT22;1255;48.716;9.124;2022-07-26T01:18:56;21.80;99.90
2489;DHT22;1255;48.716;9.124;2022-07-26T01:21:27;21.80;99.90
2489;DHT22;1255;48.716;9.124;2022-07-26T01:23:54;21.80;99.90
2489;DHT22;1255;48.716;9.124;2022-07-26T01:26:21;21.80;99.90
2489;DHT22;1255;48.716;9.124;2022-07-26T01:28:47;21.70;99.90
2489;DHT22;1255;48.716;9.124;2022-07-26T01:31:15;21.70;99.90
2489;DHT22;1255;48.716;9.124;2022-07-26T01:33:42;21.70;99.90
2489;DHT22;1255;48.716;9.124;2022-07-26T01:36:08;21.60;99.90
2489;DHT22;1255;48.716;9.124;2022-07-26T01:38:38;21.60;99.90
2489;DHT22;1255;48.716;9.124;2022-07-26T01:41:05;21.60;99.90
2489;DHT22;1255;48.716;9.124;2022-07-26T01:43:32;21.60;99.90
2489;DHT22;1255;48.716;9.124;2022-07-26T01:45:58;21.50;99.90
2489;DHT22;1255;48.716;9.124;2022-07-26T01:48:25;21.50;99.90
2489;DHT22;1255;48.716;9.124;2022-07-26T01:50:52;21.40;99.90
2489;DHT22;1255;48.716;9.124;2022-07-26T01:53:18;21.40;99.90
2489;DHT22;1255;48.716;9.124;2022-07-26T01:55:47;21.40;99.90
2489;DHT22;1255;48.716;9.124;2022-07-26T01:58:13;21.40;99.90
2489;DHT22;1255;48.716;9.124;2022-07-26T02:00:40;21.40;99.90
2489;DHT22;1255;48.716;9.124;2022-07-26T02:03:07;21.40;99.90
2489;DHT22;1255;48.716;9.124;2022-07-26T02:05:34;21.40;99.90
2489;DHT22;1255;48.716;9.124;2022-07-26T02:08:00;21.40;99.90
2489;DHT22;1255;48.716;9.124;2022-07-26T02:10:27;21.40;99.90
2489;DHT22;1255;48.716;9.124;2022-07-26T02:13:16;21.40;99.90
2489;DHT22;1255;48.716;9.124;2022-07-26T02:15:43;21.30;99.90
2489;DHT22;1255;48.716;9.124;2022-07-26T02:18:10;21.30;99.90
2489;DHT22;1255;48.716;9.124;2022-07-26T02:20:36;21.30;99.90
2489;DHT22;1255;48.716;9.124;2022-07-26T02:23:04;21.30;99.90
2489;DHT22;1255;48.716;9.124;2022-07-26T02:25:31;21.30;99.90
2489;DHT22;1255;48.716;9.124;2022-07-26T02:27:58;21.30;99.90
2489;DHT22;1255;48.716;9.124;2022-07-26T02:30:27;21.30;99.90
2489;DHT22;1255;48.716;9.124;2022-07-26T02:32:54;21.30;99.90
2489;DHT22;1255;48.716;9.124;2022-07-26T02:35:21;21.30;99.90
2489;DHT22;1255;48.716;9.124;2022-07-26T02:37:48;21.30;99.90
2489;DHT22;1255;48.716;9.124;2022-07-26T02:40:14;21.30;99.90
2489;DHT22;1255;48.716;9.124;2022-07-26T02:42:41;21.40;99.90
2489;DHT22;1255;48.716;9.124;2022-07-26T02:45:08;21.40;99.90
2489;DHT22;1255;48.716;9.124;2022-07-26T02:47:45;21.40;99.90
2489;DHT22;1255;48.716;9.124;2022-07-26T02:50:12;21.30;99.90
2489;DHT22;1255;48.716;9.124;2022-07-26T02:52:41;21.40;99.90
2489;DHT22;1255;48.716;9.124;2022-07-26T02:55:08;21.30;99.90
2489;DHT22;1255;48.716;9.124;2022-07-26T02:57:35;21.30;99.90
2489;DHT22;1255;48.716;9.124;2022-07-26T03:00:03;21.30;99.90
2489;DHT22;1255;48.716;9.124;2022-07-26T03:02:30;21.20;99.90
2489;DHT22;1255;48.716;9.124;2022-07-26T03:04:58;21.20;99.90
2489;DHT22;1255;48.716;9.124;2022-07-26T03:07:26;21.20;99.90
2489;DHT22;1255;48.716;9.124;2022-07-26T03:09:53;21.20;99.90
2489;DHT22;1255;48.716;9.124;2022-07-26T03:12:20;21.10;99.90
2489;DHT22;1255;48.716;9.124;2022-07-26T03:14:47;21.10;99.90
2489;DHT22;1255;48.716;9.124;2022-07-26T03:17:13;21.10;99.90
2489;DHT22;1255;48.716;9.124;2022-07-26T03:19:40;21.10;99.90
2489;DHT22;1255;48.716;9.124;2022-07-26T03:22:09;21.10;99.90
2489;DHT22;1255;48.716;9.124;2022-07-26T03:24:36;21.10;99.90
2489;DHT22;1255;48.716;9.124;2022-07-26T03:27:03;21.10;99.90
2489;DHT22;1255;48.716;9.124;2022-07-26T03:29:29;21.00;99.90
2489;DHT22;1255;48.716;9.124;2022-07-26T03:31:56;21.00;99.90
2489;DHT22;1255;48.716;9.124;2022-07-26T03:34:23;21.00;99.90
2489;DHT22;1255;48.716;9.124;2022-07-26T03:36:50;21.00;99.90
2489;DHT22;1255;48.716;9.124;2022-07-26T03:39:18;21.00;99.90
2489;DHT22;1255;48.716;9.124;2022-07-26T03:41:44;21.00;99.90
2489;DHT22;1255;48.716;9.124;2022-07-26T03:44:11;21.00;99.90
2489;DHT22;1255;48.716;9.124;2022-07-26T03:46:38;21.00;99.90
2489;DHT22;1255;48.716;9.124;2022-07-26T03:49:04;20.90;99.90
2489;DHT22;1255;48.716;9.124;2022-07-26T03:51:31;20.90;99.90
2489;DHT22;1255;48.716;9.124;2022-07-26T03:53:58;20.90;99.90
2489;DHT22;1255;48.716;9.124;2022-07-26T03:56:27;20.80;99.90
2489;DHT22;1255;48.716;9.124;2022-07-26T03:58:53;20.80;99.90
2489;DHT22;1255;48.716;9.124;2022-07-26T04:01:20;20.80;99.90
2489;DHT22;1255;48.716;9.124;2022-07-26T04:03:46;20.80;99.90
2489;DHT22;1255;48.716;9.124;2022-07-26T04:06:13;20.80;99.90
2489;DHT22;1255;48.716;9.124;2022-07-26T04:08:40;20.70;99.90
2489;DHT22;1255;48.716;9.124;2022-07-26T04:11:07;20.70;99.90
2489;DHT22;1255;48.716;9.124;2022-07-26T04:13:35;20.60;99.90
2489;DHT22;1255;48.716;9.124;2022-07-26T04:16:02;20.60;99.90
2489;DHT22;1255;48.716;9.124;2022-07-26T04:18:29;20.60;99.90
2489;DHT22;1255;48.716;9.124;2022-07-26T04:20:56;20.60;99.90
2489;DHT22;1255;48.716;9.124;2022-07-26T04:23:23;20.60;99.90
2489;DHT22;1255;48.716;9.124;2022-07-26T04:25:49;20.60;99.90
2489;DHT22;1255;48.716;9.124;2022-07-26T04:28:16;20.50;99.90
2489;DHT22;1255;48.716;9.124;2022-07-26T04:30:44;20.50;99.90
2489;DHT22;1255;48.716;9.124;2022-07-26T04:33:11;20.40;99.90
2489;DHT22;1255;48.716;9.124;2022-07-26T04:35:37;20.40;99.90
2489;DHT22;1255;48.716;9.124;2022-07-26T04:38:04;20.40;99.90
2489;DHT22;1255;48.716;9.124;2022-07-26T04:40:31;20.30;99.90
2489;DHT22;1255;48.716;9.124;2022-07-26T04:42:59;20.30;99.90
2489;DHT22;1255;48.716;9.124;2022-07-26T04:45:27;20.30;99.90
2489;DHT22;1255;48.716;9.124;2022-07-26T04:47:56;20.20;99.90
2489;DHT22;1255;48.716;9.124;2022-07-26T04:50:23;20.20;99.90
2489;DHT22;1255;48.716;9.124;2022-07-26T04:52:53;20.20;99.90
2489;DHT22;1255;48.716;9.124;2022-07-26T04:55:20;20.20;99.90
2489;DHT22;1255;48.716;9.124;2022-07-26T04:57:47;20.20;99.90
2489;DHT22;1255;48.716;9.124;2022-07-26T05:00:16;20.20;99.90
2489;DHT22;1255;48.716;9.124;2022-07-26T05:02:46;20.20;99.90
2489;DHT22;1255;48.716;9.124;2022-07-26T05:05:15;20.20;99.90
2489;DHT22;1255;48.716;9.124;2022-07-26T05:07:42;20.20;99.90
2489;DHT22;1255;48.716;9.124;2022-07-26T05:10:10;20.20;99.90
2489;DHT22;1255;48.716;9.124;2022-07-26T05:12:38;20.20;99.90
2489;DHT22;1255;48.716;9.124;2022-07-26T05:15:07;20.20;99.90
2489;DHT22;1255;48.716;9.124;2022-07-26T05:17:36;20.20;99.90
2489;DHT22;1255;48.716;9.124;2022-07-26T05:20:05;20.20;99.90
2489;DHT22;1255;48.716;9.124;2022-07-26T05:22:33;20.30;99.90
2489;DHT22;1255;48.716;9.124;2022-07-26T05:25:00;20.30;99.90
2489;DHT22;1255;48.716;9.124;2022-07-26T05:27:27;20.20;99.90
2489;DHT22;1255;48.716;9.124;2022-07-26T05:29:53;20.20;99.90
2489;DHT22;1255;48.716;9.124;2022-07-26T05:32:20;20.30;99.90
2489;DHT22;1255;48.716;9.124;2022-07-26T05:34:47;20.30;99.90
2489;DHT22;1255;48.716;9.124;2022-07-26T05:37:14;20.30;99.90
2489;DHT22;1255;48.716;9.124;2022-07-26T05:39:42;20.30;99.90
2489;DHT22;1255;48.716;9.124;2022-07-26T05:42:09;20.40;99.90
2489;DHT22;1255;48.716;9.124;2022-07-26T05:44:36;20.40;99.90
2489;DHT22;1255;48.716;9.124;2022-07-26T05:47:02;20.40;99.90
2489;DHT22;1255;48.716;9.124;2022-07-26T05:49:29;20.30;99.90
2489;DHT22;1255;48.716;9.124;2022-07-26T05:51:56;20.40;99.90
2489;DHT22;1255;48.716;9.124;2022-07-26T05:54:23;20.30;99.90
2489;DHT22;1255;48.716;9.124;2022-07-26T05:56:51;20.30;99.90
2489;DHT22;1255;48.716;9.124;2022-07-26T05:59:17;20.30;99.90
2489;DHT22;1255;48.716;9.124;2022-07-26T06:01:44;20.30;99.90
2489;DHT22;1255;48.716;9.124;2022-07-26T06:04:11;20.30;99.90
2489;DHT22;1255;48.716;9.124;2022-07-26T06:06:38;20.40;99.90
2489;DHT22;1255;48.716;9.124;2022-07-26T06:09:05;20.40;99.90
2489;DHT22;1255;48.716;9.124;2022-07-26T06:11:31;20.50;99.90
2489;DHT22;1255;48.716;9.124;2022-07-26T06:13:59;20.50;99.90
2489;DHT22;1255;48.716;9.124;2022-07-26T06:16:26;20.60;99.90
2489;DHT22;1255;48.716;9.124;2022-07-26T06:18:53;20.60;99.90
2489;DHT22;1255;48.716;9.124;2022-07-26T06:21:19;20.70;99.90
2489;DHT22;1255;48.716;9.124;2022-07-26T06:23:47;20.70;99.90
2489;DHT22;1255;48.716;9.124;2022-07-26T06:26:14;20.70;99.90
2489;DHT22;1255;48.716;9.124;2022-07-26T06:28:40;20.70;99.90
2489;DHT22;1255;48.716;9.124;2022-07-26T06:31:09;20.70;99.90
2489;DHT22;1255;48.716;9.124;2022-07-26T06:33:36;20.60;99.90
2489;DHT22;1255;48.716;9.124;2022-07-26T06:36:03;20.60;99.90
2489;DHT22;1255;48.716;9.124;2022-07-26T06:38:30;20.70;99.90
2489;DHT22;1255;48.716;9.124;2022-07-26T06:40:57;20.70;99.90
2489;DHT22;1255;48.716;9.124;2022-07-26T06:43:24;20.80;99.90
2489;DHT22;1255;48.716;9.124;2022-07-26T06:45:51;20.90;99.90
2489;DHT22;1255;48.716;9.124;2022-07-26T06:48:19;20.90;99.90
2489;DHT22;1255;48.716;9.124;2022-07-26T06:50:46;21.00;99.90
2489;DHT22;1255;48.716;9.124;2022-07-26T06:53:13;21.00;99.90
2489;DHT22;1255;48.716;9.124;2022-07-26T06:55:40;21.10;99.90
2489;DHT22;1255;48.716;9.124;2022-07-26T06:58:06;21.20;99.90
2489;DHT22;1255;48.716;9.124;2022-07-26T07:00:33;21.20;99.90
2489;DHT22;1255;48.716;9.124;2022-07-26T07:03:00;21.20;99.90
2489;DHT22;1255;48.716;9.124;2022-07-26T07:05:28;21.20;99.90
2489;DHT22;1255;48.716;9.124;2022-07-26T07:07:55;21.20;99.90
2489;DHT22;1255;48.716;9.124;2022-07-26T07:10:21;21.20;99.90
2489;DHT22;1255;48.716;9.124;2022-07-26T07:12:48;21.20;99.90
2489;DHT22;1255;48.716;9.124;2022-07-26T07:15:15;21.20;99.90
2489;DHT22;1255;48.716;9.124;2022-07-26T07:17:41;21.30;99.90
2489;DHT22;1255;48.716;9.124;2022-07-26T07:20:09;21.40;99.90
2489;DHT22;1255;48.716;9.124;2022-07-26T07:22:38;21.50;99.90
2489;DHT22;1255;48.716;9.124;2022-07-26T07:25:05;21.60;99.90
2489;DHT22;1255;48.716;9.124;2022-07-26T07:27:31;21.60;99.90
2489;DHT22;1255;48.716;9.124;2022-07-26T07:29:58;21.70;99.90
2489;DHT22;1255;48.716;9.124;2022-07-26T07:32:25;21.70;99.80
2489;DHT22;1255;48.716;9.124;2022-07-26T07:34:52;21.80;99.70
2489;DHT22;1255;48.716;9.124;2022-07-26T07:37:18;21.80;99.80
2489;DHT22;1255;48.716;9.124;2022-07-26T07:39:46;21.90;99.60
2489;DHT22;1255;48.716;9.124;2022-07-26T07:42:13;22.00;98.80
2489;DHT22;1255;48.716;9.124;2022-07-26T07:44:40;22.00;98.50
2489;DHT22;1255;48.716;9.124;2022-07-26T07:47:07;22.10;99.00
2489;DHT22;1255;48.716;9.124;2022-07-26T07:49:34;22.20;99.10
2489;DHT22;1255;48.716;9.124;2022-07-26T07:52:00;22.30;99.40
2489;DHT22;1255;48.716;9.124;2022-07-26T07:54:27;22.40;98.60
2489;DHT22;1255;48.716;9.124;2022-07-26T07:56:55;22.50;98.50
2489;DHT22;1255;48.716;9.124;2022-07-26T07:59:22;22.50;98.60
2489;DHT22;1255;48.716;9.124;2022-07-26T08:01:49;22.40;98.80
2489;DHT22;1255;48.716;9.124;2022-07-26T08:04:16;22.40;98.40
2489;DHT22;1255;48.716;9.124;2022-07-26T08:06:43;22.50;98.80
2489;DHT22;1255;48.716;9.124;2022-07-26T08:09:09;22.60;98.10
2489;DHT22;1255;48.716;9.124;2022-07-26T08:11:36;22.60;97.50
2489;DHT22;1255;48.716;9.124;2022-07-26T08:14:04;22.80;98.20
2489;DHT22;1255;48.716;9.124;2022-07-26T08:16:31;22.90;98.00
2489;DHT22;1255;48.716;9.124;2022-07-26T08:18:58;23.00;98.20
2489;DHT22;1255;48.716;9.124;2022-07-26T08:21:25;23.10;97.70
2489;DHT22;1255;48.716;9.124;2022-07-26T08:23:52;23.10;97.70
2489;DHT22;1255;48.716;9.124;2022-07-26T08:26:18;22.90;97.40
2489;DHT22;1255;48.716;9.124;2022-07-26T08:28:45;22.80;96.50
2489;DHT22;1255;48.716;9.124;2022-07-26T08:31:13;22.60;96.80
2489;DHT22;1255;48.716;9.124;2022-07-26T08:33:40;22.60;97.10
2489;DHT22;1255;48.716;9.124;2022-07-26T08:36:07;22.60;97.10
2489;DHT22;1255;48.716;9.124;2022-07-26T08:38:34;22.80;97.30
2489;DHT22;1255;48.716;9.124;2022-07-26T08:41:00;23.10;97.50
2489;DHT22;1255;48.716;9.124;2022-07-26T08:43:27;23.40;98.10
2489;DHT22;1255;48.716;9.124;2022-07-26T08:45:59;23.40;97.30
2489;DHT22;1255;48.716;9.124;2022-07-26T08:48:28;23.40;97.20
2489;DHT22;1255;48.716;9.124;2022-07-26T08:50:54;23.30;97.30
2489;DHT22;1255;48.716;9.124;2022-07-26T08:53:22;23.20;97.00
2489;DHT22;1255;48.716;9.124;2022-07-26T08:55:48;23.20;96.20
2489;DHT22;1255;48.716;9.124;2022-07-26T08:58:15;23.10;95.20
2489;DHT22;1255;48.716;9.124;2022-07-26T09:00:42;23.30;97.30
2489;DHT22;1255;48.716;9.124;2022-07-26T09:03:23;23.50;98.20
2489;DHT22;1255;48.716;9.124;2022-07-26T09:05:52;23.80;96.00
2489;DHT22;1255;48.716;9.124;2022-07-26T09:08:24;23.90;96.10
2489;DHT22;1255;48.716;9.124;2022-07-26T09:10:51;23.80;95.80
2489;DHT22;1255;48.716;9.124;2022-07-26T09:13:17;23.70;96.70
2489;DHT22;1255;48.716;9.124;2022-07-26T09:15:44;23.70;96.50
2489;DHT22;1255;48.716;9.124;2022-07-26T09:18:25;23.90;96.70
2489;DHT22;1255;48.716;9.124;2022-07-26T09:20:53;24.10;95.30
2489;DHT22;1255;48.716;9.124;2022-07-26T09:23:21;24.30;96.40
2489;DHT22;1255;48.716;9.124;2022-07-26T09:25:48;24.40;96.10
2489;DHT22;1255;48.716;9.124;2022-07-26T09:28:22;24.40;94.60
2489;DHT22;1255;48.716;9.124;2022-07-26T09:30:51;24.30;95.30
2489;DHT22;1255;48.716;9.124;2022-07-26T09:33:18;24.40;95.50
2489;DHT22;1255;48.716;9.124;2022-07-26T09:36:00;24.40;94.80
2489;DHT22;1255;48.716;9.124;2022-07-26T09:38:38;24.30;93.40
2489;DHT22;1255;48.716;9.124;2022-07-26T09:41:16;24.20;94.60
2489;DHT22;1255;48.716;9.124;2022-07-26T09:43:43;24.20;94.80
2489;DHT22;1255;48.716;9.124;2022-07-26T09:46:10;24.30;94.50
2489;DHT22;1255;48.716;9.124;2022-07-26T09:48:38;24.40;93.70
2489;DHT22;1255;48.716;9.124;2022-07-26T09:51:06;24.30;93.80
2489;DHT22;1255;48.716;9.124;2022-07-26T09:53:38;24.10;93.40
2489;DHT22;1255;48.716;9.124;2022-07-26T09:56:05;23.90;93.60
2489;DHT22;1255;48.716;9.124;2022-07-26T09:58:35;23.70;94.40
2489;DHT22;1255;48.716;9.124;2022-07-26T10:01:02;23.70;93.70
2489;DHT22;1255;48.716;9.124;2022-07-26T10:03:33;23.60;93.40
2489;DHT22;1255;48.716;9.124;2022-07-26T10:06:01;23.50;94.20
2489;DHT22;1255;48.716;9.124;2022-07-26T10:08:30;23.60;95.10
2489;DHT22;1255;48.716;9.124;2022-07-26T10:11:02;23.90;95.40
2489;DHT22;1255;48.716;9.124;2022-07-26T10:13:29;24.10;93.80
2489;DHT22;1255;48.716;9.124;2022-07-26T10:15:56;24.10;94.00
2489;DHT22;1255;48.716;9.124;2022-07-26T10:18:43;24.00;94.20
2489;DHT22;1255;48.716;9.124;2022-07-26T10:21:22;24.00;94.90
2489;DHT22;1255;48.716;9.124;2022-07-26T10:23:51;23.90;94.60
2489;DHT22;1255;48.716;9.124;2022-07-26T10:26:39;23.80;93.50
2489;DHT22;1255;48.716;9.124;2022-07-26T10:29:25;24.00;93.60
2489;DHT22;1255;48.716;9.124;2022-07-26T10:32:16;24.20;94.20
2489;DHT22;1255;48.716;9.124;2022-07-26T10:34:44;24.40;95.10
2489;DHT22;1255;48.716;9.124;2022-07-26T10:37:21;24.60;94.20
2489;DHT22;1255;48.716;9.124;2022-07-26T10:40:19;24.50;94.20
2489;DHT22;1255;48.716;9.124;2022-07-26T10:42:47;24.50;94.90
2489;DHT22;1255;48.716;9.124;2022-07-26T10:45:18;24.40;94.50
2489;DHT22;1255;48.716;9.124;2022-07-26T10:48:08;24.40;94.70
2489;DHT22;1255;48.716;9.124;2022-07-26T10:50:36;24.50;92.60
2489;DHT22;1255;48.716;9.124;2022-07-26T10:53:03;24.60;92.90
2489;DHT22;1255;48.716;9.124;2022-07-26T10:55:44;24.80;94.00
2489;DHT22;1255;48.716;9.124;2022-07-26T10:58:11;25.20;92.80
2489;DHT22;1255;48.716;9.124;2022-07-26T11:00:38;25.30;93.40
2489;DHT22;1255;48.716;9.124;2022-07-26T11:03:05;25.60;93.80
2489;DHT22;1255;48.716;9.124;2022-07-26T11:05:32;25.90;92.80
2489;DHT22;1255;48.716;9.124;2022-07-26T11:08:01;25.90;93.10
2489;DHT22;1255;48.716;9.124;2022-07-26T11:10:35;26.00;93.00
2489;DHT22;1255;48.716;9.124;2022-07-26T11:13:14;26.00;92.70
2489;DHT22;1255;48.716;9.124;2022-07-26T11:15:44;26.20;93.40
2489;DHT22;1255;48.716;9.124;2022-07-26T11:18:19;26.20;92.80
2489;DHT22;1255;48.716;9.124;2022-07-26T11:20:49;26.20;92.70
2489;DHT22;1255;48.716;9.124;2022-07-26T11:23:29;26.20;92.10
2489;DHT22;1255;48.716;9.124;2022-07-26T11:26:06;26.00;92.30
2489;DHT22;1255;48.716;9.124;2022-07-26T11:28:50;26.00;94.00
2489;DHT22;1255;48.716;9.124;2022-07-26T11:31:18;26.00;92.50
2489;DHT22;1255;48.716;9.124;2022-07-26T11:33:46;25.80;92.30
2489;DHT22;1255;48.716;9.124;2022-07-26T11:36:15;25.60;92.30
2489;DHT22;1255;48.716;9.124;2022-07-26T11:38:47;25.70;93.90
2489;DHT22;1255;48.716;9.124;2022-07-26T11:41:17;25.90;92.90
2489;DHT22;1255;48.716;9.124;2022-07-26T11:43:44;26.20;93.50
2489;DHT22;1255;48.716;9.124;2022-07-26T11:46:11;26.30;92.30
2489;DHT22;1255;48.716;9.124;2022-07-26T11:48:44;26.30;92.20
2489;DHT22;1255;48.716;9.124;2022-07-26T11:51:12;26.40;93.00
2489;DHT22;1255;48.716;9.124;2022-07-26T11:53:39;26.60;93.30
2489;DHT22;1255;48.716;9.124;2022-07-26T11:56:26;26.60;92.10
2489;DHT22;1255;48.716;9.124;2022-07-26T11:58:54;26.60;91.50
2489;DHT22;1255;48.716;9.124;2022-07-26T12:01:22;26.60;91.90
2489;DHT22;1255;48.716;9.124;2022-07-26T12:03:50;26.60;91.90
2489;DHT22;1255;48.716;9.124;2022-07-26T12:06:20;26.80;92.40
2489;DHT22;1255;48.716;9.124;2022-07-26T12:08:49;26.90;90.10
2489;DHT22;1255;48.716;9.124;2022-07-26T12:11:17;27.00;90.80
2489;DHT22;1255;48.716;9.124;2022-07-26T12:13:55;27.10;90.70
2489;DHT22;1255;48.716;9.124;2022-07-26T12:16:42;27.30;91.60
2489;DHT22;1255;48.716;9.124;2022-07-26T12:19:23;27.20;90.40
2489;DHT22;1255;48.716;9.124;2022-07-26T12:21:52;27.00;90.40
2489;DHT22;1255;48.716;9.124;2022-07-26T12:24:43;27.00;91.10
2489;DHT22;1255;48.716;9.124;2022-07-26T12:27:13;26.80;90.30
2489;DHT22;1255;48.716;9.124;2022-07-26T12:29:42;26.60;90.10
2489;DHT22;1255;48.716;9.124;2022-07-26T12:32:12;26.60;91.50
2489;DHT22;1255;48.716;9.124;2022-07-26T12:34:52;26.80;90.20
2489;DHT22;1255;48.716;9.124;2022-07-26T12:37:21;26.80;90.10
2489;DHT22;1255;48.716;9.124;2022-07-26T12:40:06;26.70;90.60
2489;DHT22;1255;48.716;9.124;2022-07-26T12:42:35;26.60;90.60
2489;DHT22;1255;48.716;9.124;2022-07-26T12:45:06;26.60;91.50
2489;DHT22;1255;48.716;9.124;2022-07-26T12:47:33;26.40;89.90
2489;DHT22;1255;48.716;9.124;2022-07-26T12:50:00;26.20;89.70
2489;DHT22;1255;48.716;9.124;2022-07-26T12:52:28;26.00;90.50
2489;DHT22;1255;48.716;9.124;2022-07-26T12:54:55;26.00;89.70
2489;DHT22;1255;48.716;9.124;2022-07-26T12:57:22;25.90;90.60
2489;DHT22;1255;48.716;9.124;2022-07-26T12:59:48;25.70;90.30
2489;DHT22;1255;48.716;9.124;2022-07-26T13:02:17;25.40;90.50
2489;DHT22;1255;48.716;9.124;2022-07-26T13:04:45;25.40;90.80
2489;DHT22;1255;48.716;9.124;2022-07-26T13:07:12;25.50;90.40
2489;DHT22;1255;48.716;9.124;2022-07-26T13:09:39;25.50;90.80
2489;DHT22;1255;48.716;9.124;2022-07-26T13:12:07;25.70;92.30
2489;DHT22;1255;48.716;9.124;2022-07-26T13:14:36;26.00;92.00
2489;DHT22;1255;48.716;9.124;2022-07-26T13:17:03;26.40;91.90
2489;DHT22;1255;48.716;9.124;2022-07-26T13:19:33;26.70;91.00
2489;DHT22;1255;48.716;9.124;2022-07-26T13:22:01;26.90;90.30
2489;DHT22;1255;48.716;9.124;2022-07-26T13:24:29;27.00;90.60
2489;DHT22;1255;48.716;9.124;2022-07-26T13:26:56;26.90;90.60
2489;DHT22;1255;48.716;9.124;2022-07-26T13:29:24;26.80;90.00
2489;DHT22;1255;48.716;9.124;2022-07-26T13:31:50;26.60;88.40
2489;DHT22;1255;48.716;9.124;2022-07-26T13:34:18;26.60;88.60
2489;DHT22;1255;48.716;9.124;2022-07-26T13:36:46;26.80;90.60
2489;DHT22;1255;48.716;9.124;2022-07-26T13:39:13;27.00;88.20
2489;DHT22;1255;48.716;9.124;2022-07-26T13:41:41;27.10;89.60
2489;DHT22;1255;48.716;9.124;2022-07-26T13:44:08;27.40;88.50
2489;DHT22;1255;48.716;9.124;2022-07-26T13:46:35;27.60;89.70
2489;DHT22;1255;48.716;9.124;2022-07-26T13:49:03;27.80;88.30
2489;DHT22;1255;48.716;9.124;2022-07-26T13:51:31;28.00;90.60
2489;DHT22;1255;48.716;9.124;2022-07-26T13:54:18;28.00;86.50
2489;DHT22;1255;48.716;9.124;2022-07-26T13:56:45;27.90;87.00
2489;DHT22;1255;48.716;9.124;2022-07-26T13:59:12;27.80;86.60
2489;DHT22;1255;48.716;9.124;2022-07-26T14:01:39;27.90;89.60
2489;DHT22;1255;48.716;9.124;2022-07-26T14:04:07;27.90;90.40
2489;DHT22;1255;48.716;9.124;2022-07-26T14:06:34;27.90;87.30
2489;DHT22;1255;48.716;9.124;2022-07-26T14:09:02;27.60;85.60
2489;DHT22;1255;48.716;9.124;2022-07-26T14:11:30;27.20;84.40
2489;DHT22;1255;48.716;9.124;2022-07-26T14:13:57;27.00;86.30
2489;DHT22;1255;48.716;9.124;2022-07-26T14:16:24;27.00;88.70
2489;DHT22;1255;48.716;9.124;2022-07-26T14:18:52;27.20;89.00
2489;DHT22;1255;48.716;9.124;2022-07-26T14:21:19;27.20;88.10
2489;DHT22;1255;48.716;9.124;2022-07-26T14:23:47;27.20;87.30
2489;DHT22;1255;48.716;9.124;2022-07-26T14:26:13;27.00;86.00
2489;DHT22;1255;48.716;9.124;2022-07-26T14:28:41;27.00;85.80
2489;DHT22;1255;48.716;9.124;2022-07-26T14:31:08;27.10;84.90
2489;DHT22;1255;48.716;9.124;2022-07-26T14:33:35;27.10;85.20
2489;DHT22;1255;48.716;9.124;2022-07-26T14:36:01;27.10;84.70
2489;DHT22;1255;48.716;9.124;2022-07-26T14:38:31;26.90;85.70
2489;DHT22;1255;48.716;9.124;2022-07-26T14:40:57;26.70;86.20
2489;DHT22;1255;48.716;9.124;2022-07-26T14:43:25;26.70;85.50
2489;DHT22;1255;48.716;9.124;2022-07-26T14:45:54;26.80;88.60
2489;DHT22;1255;48.716;9.124;2022-07-26T14:48:20;27.00;85.80
2489;DHT22;1255;48.716;9.124;2022-07-26T14:50:47;27.10;85.70
2489;DHT22;1255;48.716;9.124;2022-07-26T14:53:15;27.30;84.30
2489;DHT22;1255;48.716;9.124;2022-07-26T14:55:42;27.40;85.50
2489;DHT22;1255;48.716;9.124;2022-07-26T14:58:08;27.60;85.70
2489;DHT22;1255;48.716;9.124;2022-07-26T15:00:35;27.60;83.90
2489;DHT22;1255;48.716;9.124;2022-07-26T15:03:07;27.40;82.80
2489;DHT22;1255;48.716;9.124;2022-07-26T15:05:34;27.10;82.10
2489;DHT22;1255;48.716;9.124;2022-07-26T15:08:01;27.00;82.10
2489;DHT22;1255;48.716;9.124;2022-07-26T15:10:28;27.00;82.10
2489;DHT22;1255;48.716;9.124;2022-07-26T15:12:55;27.10;84.00
2489;DHT22;1255;48.716;9.124;2022-07-26T15:15:22;27.20;86.30
2489;DHT22;1255;48.716;9.124;2022-07-26T15:17:49;27.40;85.80
2489;DHT22;1255;48.716;9.124;2022-07-26T15:20:18;27.50;84.00
2489;DHT22;1255;48.716;9.124;2022-07-26T15:22:45;27.60;86.30
2489;DHT22;1255;48.716;9.124;2022-07-26T15:25:12;27.60;81.10
2489;DHT22;1255;48.716;9.124;2022-07-26T15:27:39;27.40;84.00
2489;DHT22;1255;48.716;9.124;2022-07-26T15:30:07;27.10;82.90
2489;DHT22;1255;48.716;9.124;2022-07-26T15:32:35;26.80;81.80
2489;DHT22;1255;48.716;9.124;2022-07-26T15:35:02;26.60;84.30
2489;DHT22;1255;48.716;9.124;2022-07-26T15:37:30;26.30;84.10
2489;DHT22;1255;48.716;9.124;2022-07-26T15:39:57;26.20;85.20
2489;DHT22;1255;48.716;9.124;2022-07-26T15:42:24;26.10;84.30
2489;DHT22;1255;48.716;9.124;2022-07-26T15:44:51;26.00;84.90
2489;DHT22;1255;48.716;9.124;2022-07-26T15:47:18;26.00;84.00
2489;DHT22;1255;48.716;9.124;2022-07-26T15:49:45;26.00;85.80
2489;DHT22;1255;48.716;9.124;2022-07-26T15:52:11;26.00;85.70
2489;DHT22;1255;48.716;9.124;2022-07-26T15:54:40;26.00;85.60
2489;DHT22;1255;48.716;9.124;2022-07-26T15:57:07;25.90;84.80
2489;DHT22;1255;48.716;9.124;2022-07-26T15:59:34;25.90;85.60
2489;DHT22;1255;48.716;9.124;2022-07-26T16:02:03;26.00;87.00
2489;DHT22;1255;48.716;9.124;2022-07-26T16:04:30;26.20;87.10
2489;DHT22;1255;48.716;9.124;2022-07-26T16:07:08;26.20;86.70
2489;DHT22;1255;48.716;9.124;2022-07-26T16:09:35;26.00;85.40